Terminal Aerodrome Forecast
Issued by NWS

Home | Current Version | Previous Version | Text Only | Print | Product List | Glossary On
Versions: 1 2 3 4 5 6 7 8 9 10 11 12 13 14 15 16 17 18 19 20 21 22 23 24 25 26 27 28 29 30 31 32 33 34 35 36 37 38 39 40 41 42
000
FTUS46 KOTX 281301 AAA
TAFSFF
TAF AMD
KSFF 281301Z 2813/2912 19007KT P6SM BKN015 OVC150
      TEMPO 2813/2816 SCT015 OVC150
     FM281600 18006KT P6SM BKN050 BKN100 OVC200
     FM282200 20011G17KT P6SM -SHRA BKN040 OVC120
     FM290200 19007KT P6SM SCT040 BKN100
     FM290800 17005KT P6SM -RA BKN025 OVC060=

USA.gov is the U.S. government's official web portal to all federal, state and local government web resources and services.